sensor_id;sensor_type;location;lat;lon;timestamp;P1;durP1;ratioP1;P2;durP2;ratioP2
2888;SDS011;1453;42.708;23.282;2023-11-19T00:00:24;5.22;;;3.42;;
2888;SDS011;1453;42.708;23.282;2023-11-19T00:02:51;4.93;;;3.17;;
2888;SDS011;1453;42.708;23.282;2023-11-19T00:05:17;5.47;;;2.97;;
2888;SDS011;1453;42.708;23.282;2023-11-19T00:07:44;7.13;;;3.40;;
2888;SDS011;1453;42.708;23.282;2023-11-19T00:10:10;5.07;;;3.73;;
2888;SDS011;1453;42.708;23.282;2023-11-19T00:12:38;4.18;;;2.47;;
2888;SDS011;1453;42.708;23.282;2023-11-19T00:15:09;4.53;;;3.40;;
2888;SDS011;1453;42.708;23.282;2023-11-19T00:17:40;4.82;;;3.30;;
2888;SDS011;1453;42.708;23.282;2023-11-19T00:20:13;6.68;;;3.70;;
2888;SDS011;1453;42.708;23.282;2023-11-19T00:22:42;3.65;;;2.58;;
2888;SDS011;1453;42.708;23.282;2023-11-19T00:25:08;5.45;;;3.45;;
2888;SDS011;1453;42.708;23.282;2023-11-19T00:27:35;4.22;;;2.70;;
2888;SDS011;1453;42.708;23.282;2023-11-19T00:30:03;5.57;;;3.42;;
2888;SDS011;1453;42.708;23.282;2023-11-19T00:32:33;5.97;;;3.50;;
2888;SDS011;1453;42.708;23.282;2023-11-19T00:34:59;4.60;;;3.20;;
2888;SDS011;1453;42.708;23.282;2023-11-19T00:37:25;5.93;;;3.40;;
2888;SDS011;1453;42.708;23.282;2023-11-19T00:39:51;5.00;;;3.05;;
2888;SDS011;1453;42.708;23.282;2023-11-19T00:42:17;5.85;;;3.90;;
2888;SDS011;1453;42.708;23.282;2023-11-19T00:44:43;5.28;;;3.78;;
2888;SDS011;1453;42.708;23.282;2023-11-19T00:47:10;5.72;;;3.40;;
2888;SDS011;1453;42.708;23.282;2023-11-19T00:49:36;5.77;;;3.70;;
2888;SDS011;1453;42.708;23.282;2023-11-19T00:52:02;5.47;;;4.10;;
2888;SDS011;1453;42.708;23.282;2023-11-19T00:54:28;6.85;;;2.80;;
2888;SDS011;1453;42.708;23.282;2023-11-19T00:56:54;4.90;;;2.67;;
2888;SDS011;1453;42.708;23.282;2023-11-19T00:59:21;5.93;;;3.90;;
2888;SDS011;1453;42.708;23.282;2023-11-19T01:01:47;4.63;;;3.33;;
2888;SDS011;1453;42.708;23.282;2023-11-19T01:04:14;6.37;;;3.97;;
2888;SDS011;1453;42.708;23.282;2023-11-19T01:06:40;4.90;;;3.00;;
2888;SDS011;1453;42.708;23.282;2023-11-19T01:09:07;5.18;;;3.45;;
2888;SDS011;1453;42.708;23.282;2023-11-19T01:11:34;4.07;;;3.05;;
2888;SDS011;1453;42.708;23.282;2023-11-19T01:14:00;6.57;;;3.10;;
2888;SDS011;1453;42.708;23.282;2023-11-19T01:16:26;5.75;;;3.10;;
2888;SDS011;1453;42.708;23.282;2023-11-19T01:18:53;5.38;;;3.38;;
2888;SDS011;1453;42.708;23.282;2023-11-19T01:21:18;4.63;;;3.00;;
2888;SDS011;1453;42.708;23.282;2023-11-19T01:23:45;4.65;;;2.35;;
2888;SDS011;1453;42.708;23.282;2023-11-19T01:26:11;4.47;;;2.30;;
2888;SDS011;1453;42.708;23.282;2023-11-19T01:28:38;5.05;;;3.33;;
2888;SDS011;1453;42.708;23.282;2023-11-19T01:31:05;4.50;;;3.33;;
2888;SDS011;1453;42.708;23.282;2023-11-19T01:33:37;6.90;;;3.80;;
2888;SDS011;1453;42.708;23.282;2023-11-19T01:36:03;5.78;;;3.05;;
2888;SDS011;1453;42.708;23.282;2023-11-19T01:38:30;5.57;;;4.00;;
2888;SDS011;1453;42.708;23.282;2023-11-19T01:40:59;4.40;;;2.97;;
2888;SDS011;1453;42.708;23.282;2023-11-19T01:43:33;4.65;;;2.85;;
2888;SDS011;1453;42.708;23.282;2023-11-19T01:46:08;4.47;;;3.10;;
2888;SDS011;1453;42.708;23.282;2023-11-19T01:48:35;4.07;;;2.47;;
2888;SDS011;1453;42.708;23.282;2023-11-19T01:51:05;4.30;;;2.60;;
2888;SDS011;1453;42.708;23.282;2023-11-19T01:53:34;4.45;;;3.05;;
2888;SDS011;1453;42.708;23.282;2023-11-19T01:56:02;6.50;;;3.60;;
2888;SDS011;1453;42.708;23.282;2023-11-19T01:58:29;4.45;;;2.90;;
2888;SDS011;1453;42.708;23.282;2023-11-19T02:00:56;6.10;;;4.15;;
2888;SDS011;1453;42.708;23.282;2023-11-19T02:03:22;4.90;;;3.60;;
2888;SDS011;1453;42.708;23.282;2023-11-19T02:05:51;4.50;;;3.15;;
2888;SDS011;1453;42.708;23.282;2023-11-19T02:08:18;5.68;;;3.55;;
2888;SDS011;1453;42.708;23.282;2023-11-19T02:10:45;5.90;;;3.58;;
2888;SDS011;1453;42.708;23.282;2023-11-19T02:13:11;5.33;;;3.60;;
2888;SDS011;1453;42.708;23.282;2023-11-19T02:15:38;4.65;;;3.08;;
2888;SDS011;1453;42.708;23.282;2023-11-19T02:18:22;5.50;;;3.25;;
2888;SDS011;1453;42.708;23.282;2023-11-19T02:20:53;3.88;;;2.65;;
2888;SDS011;1453;42.708;23.282;2023-11-19T02:23:22;4.80;;;3.58;;
2888;SDS011;1453;42.708;23.282;2023-11-19T02:26:13;5.05;;;3.80;;
2888;SDS011;1453;42.708;23.282;2023-11-19T02:29:22;7.70;;;3.65;;
2888;SDS011;1453;42.708;23.282;2023-11-19T02:31:47;5.10;;;3.07;;
2888;SDS011;1453;42.708;23.282;2023-11-19T02:34:13;4.07;;;2.87;;
2888;SDS011;1453;42.708;23.282;2023-11-19T02:36:39;5.70;;;3.00;;
2888;SDS011;1453;42.708;23.282;2023-11-19T02:39:06;4.57;;;2.88;;
2888;SDS011;1453;42.708;23.282;2023-11-19T02:41:36;6.68;;;3.35;;
2888;SDS011;1453;42.708;23.282;2023-11-19T02:44:05;5.32;;;2.90;;
2888;SDS011;1453;42.708;23.282;2023-11-19T02:46:34;5.97;;;3.60;;
2888;SDS011;1453;42.708;23.282;2023-11-19T02:49:00;6.25;;;3.95;;
2888;SDS011;1453;42.708;23.282;2023-11-19T02:51:26;6.63;;;3.40;;
2888;SDS011;1453;42.708;23.282;2023-11-19T02:53:52;5.30;;;3.15;;
2888;SDS011;1453;42.708;23.282;2023-11-19T02:56:18;4.50;;;2.63;;
2888;SDS011;1453;42.708;23.282;2023-11-19T02:58:51;3.75;;;2.22;;
2888;SDS011;1453;42.708;23.282;2023-11-19T03:01:26;6.40;;;4.63;;
2888;SDS011;1453;42.708;23.282;2023-11-19T03:03:56;4.57;;;3.05;;
2888;SDS011;1453;42.708;23.282;2023-11-19T03:06:23;5.00;;;3.28;;
2888;SDS011;1453;42.708;23.282;2023-11-19T03:08:49;6.13;;;4.00;;
2888;SDS011;1453;42.708;23.282;2023-11-19T03:11:15;5.93;;;3.70;;
2888;SDS011;1453;42.708;23.282;2023-11-19T03:13:41;4.80;;;3.10;;
2888;SDS011;1453;42.708;23.282;2023-11-19T03:16:07;5.27;;;3.30;;
2888;SDS011;1453;42.708;23.282;2023-11-19T03:18:33;5.90;;;3.20;;
2888;SDS011;1453;42.708;23.282;2023-11-19T03:20:59;5.40;;;3.47;;
2888;SDS011;1453;42.708;23.282;2023-11-19T03:23:25;4.90;;;2.70;;
2888;SDS011;1453;42.708;23.282;2023-11-19T03:25:53;4.95;;;3.10;;
2888;SDS011;1453;42.708;23.282;2023-11-19T03:28:19;4.30;;;2.90;;
2888;SDS011;1453;42.708;23.282;2023-11-19T03:30:45;4.50;;;2.97;;
2888;SDS011;1453;42.708;23.282;2023-11-19T03:33:11;4.93;;;3.13;;
2888;SDS011;1453;42.708;23.282;2023-11-19T03:35:36;6.80;;;4.87;;
2888;SDS011;1453;42.708;23.282;2023-11-19T03:38:02;6.40;;;3.90;;
2888;SDS011;1453;42.708;23.282;2023-11-19T03:40:28;5.13;;;3.57;;
2888;SDS011;1453;42.708;23.282;2023-11-19T03:42:58;4.50;;;3.05;;
2888;SDS011;1453;42.708;23.282;2023-11-19T03:45:24;5.15;;;3.05;;
2888;SDS011;1453;42.708;23.282;2023-11-19T03:47:50;5.05;;;3.28;;
2888;SDS011;1453;42.708;23.282;2023-11-19T03:50:16;5.05;;;3.53;;
2888;SDS011;1453;42.708;23.282;2023-11-19T03:52:45;6.28;;;3.50;;
2888;SDS011;1453;42.708;23.282;2023-11-19T03:55:11;5.90;;;4.28;;
2888;SDS011;1453;42.708;23.282;2023-11-19T03:57:38;4.20;;;2.67;;
2888;SDS011;1453;42.708;23.282;2023-11-19T04:00:04;5.78;;;3.75;;
2888;SDS011;1453;42.708;23.282;2023-11-19T04:02:39;3.85;;;2.30;;
2888;SDS011;1453;42.708;23.282;2023-11-19T04:05:05;4.47;;;2.42;;
2888;SDS011;1453;42.708;23.282;2023-11-19T04:07:32;5.20;;;2.78;;
2888;SDS011;1453;42.708;23.282;2023-11-19T04:09:58;6.38;;;3.45;;
2888;SDS011;1453;42.708;23.282;2023-11-19T04:12:25;6.85;;;3.67;;
2888;SDS011;1453;42.708;23.282;2023-11-19T04:14:51;5.53;;;3.63;;
2888;SDS011;1453;42.708;23.282;2023-11-19T04:17:16;5.10;;;3.30;;
2888;SDS011;1453;42.708;23.282;2023-11-19T04:19:42;5.80;;;3.53;;
2888;SDS011;1453;42.708;23.282;2023-11-19T04:22:08;8.00;;;3.90;;
2888;SDS011;1453;42.708;23.282;2023-11-19T04:24:34;4.53;;;3.40;;
2888;SDS011;1453;42.708;23.282;2023-11-19T04:27:00;5.28;;;3.05;;
2888;SDS011;1453;42.708;23.282;2023-11-19T04:29:26;6.60;;;4.10;;
2888;SDS011;1453;42.708;23.282;2023-11-19T04:31:52;5.37;;;3.60;;
2888;SDS011;1453;42.708;23.282;2023-11-19T04:34:18;4.63;;;3.28;;
2888;SDS011;1453;42.708;23.282;2023-11-19T04:36:44;6.43;;;3.70;;
2888;SDS011;1453;42.708;23.282;2023-11-19T04:39:10;6.33;;;4.07;;
2888;SDS011;1453;42.708;23.282;2023-11-19T04:41:49;7.07;;;4.40;;
2888;SDS011;1453;42.708;23.282;2023-11-19T04:44:18;4.75;;;3.35;;
2888;SDS011;1453;42.708;23.282;2023-11-19T04:46:44;5.97;;;4.00;;
2888;SDS011;1453;42.708;23.282;2023-11-19T04:49:11;5.18;;;3.53;;
2888;SDS011;1453;42.708;23.282;2023-11-19T04:51:41;5.07;;;3.55;;
2888;SDS011;1453;42.708;23.282;2023-11-19T04:54:07;6.03;;;3.80;;
2888;SDS011;1453;42.708;23.282;2023-11-19T04:56:34;6.90;;;4.28;;
2888;SDS011;1453;42.708;23.282;2023-11-19T04:59:04;6.15;;;3.90;;
2888;SDS011;1453;42.708;23.282;2023-11-19T05:01:34;5.80;;;4.18;;
2888;SDS011;1453;42.708;23.282;2023-11-19T05:04:00;6.68;;;4.50;;
2888;SDS011;1453;42.708;23.282;2023-11-19T05:06:30;5.28;;;3.83;;
2888;SDS011;1453;42.708;23.282;2023-11-19T05:08:58;6.70;;;4.28;;
2888;SDS011;1453;42.708;23.282;2023-11-19T05:11:34;5.88;;;4.13;;
2888;SDS011;1453;42.708;23.282;2023-11-19T05:14:02;5.82;;;3.50;;
2888;SDS011;1453;42.708;23.282;2023-11-19T05:16:31;5.88;;;4.00;;
2888;SDS011;1453;42.708;23.282;2023-11-19T05:18:57;4.28;;;2.97;;
2888;SDS011;1453;42.708;23.282;2023-11-19T05:21:23;5.73;;;3.40;;
2888;SDS011;1453;42.708;23.282;2023-11-19T05:23:49;6.20;;;3.80;;
2888;SDS011;1453;42.708;23.282;2023-11-19T05:26:21;5.77;;;4.20;;
2888;SDS011;1453;42.708;23.282;2023-11-19T05:28:48;5.68;;;3.55;;
2888;SDS011;1453;42.708;23.282;2023-11-19T05:31:15;5.03;;;3.67;;
2888;SDS011;1453;42.708;23.282;2023-11-19T05:33:42;4.70;;;3.25;;
2888;SDS011;1453;42.708;23.282;2023-11-19T05:36:08;5.55;;;3.40;;
2888;SDS011;1453;42.708;23.282;2023-11-19T05:38:37;5.43;;;3.80;;
2888;SDS011;1453;42.708;23.282;2023-11-19T05:41:04;6.10;;;3.75;;
2888;SDS011;1453;42.708;23.282;2023-11-19T05:43:33;6.20;;;4.20;;
2888;SDS011;1453;42.708;23.282;2023-11-19T05:45:59;6.32;;;3.63;;
2888;SDS011;1453;42.708;23.282;2023-11-19T05:48:26;5.40;;;3.40;;
2888;SDS011;1453;42.708;23.282;2023-11-19T05:50:53;5.80;;;3.75;;
2888;SDS011;1453;42.708;23.282;2023-11-19T05:53:19;12.38;;;4.30;;
2888;SDS011;1453;42.708;23.282;2023-11-19T05:55:45;6.30;;;3.93;;
2888;SDS011;1453;42.708;23.282;2023-11-19T05:58:19;5.15;;;3.13;;
2888;SDS011;1453;42.708;23.282;2023-11-19T06:00:48;5.82;;;3.70;;
2888;SDS011;1453;42.708;23.282;2023-11-19T06:03:15;5.72;;;4.10;;
2888;SDS011;1453;42.708;23.282;2023-11-19T06:05:44;5.50;;;3.90;;
2888;SDS011;1453;42.708;23.282;2023-11-19T06:08:11;5.38;;;3.67;;
2888;SDS011;1453;42.708;23.282;2023-11-19T06:10:41;5.60;;;3.35;;
2888;SDS011;1453;42.708;23.282;2023-11-19T06:13:08;6.25;;;4.15;;
2888;SDS011;1453;42.708;23.282;2023-11-19T06:15:40;6.47;;;3.92;;
2888;SDS011;1453;42.708;23.282;2023-11-19T06:18:07;5.43;;;3.85;;
2888;SDS011;1453;42.708;23.282;2023-11-19T06:20:34;5.80;;;3.10;;
2888;SDS011;1453;42.708;23.282;2023-11-19T06:23:00;5.70;;;3.80;;
2888;SDS011;1453;42.708;23.282;2023-11-19T06:25:26;7.38;;;4.43;;
2888;SDS011;1453;42.708;23.282;2023-11-19T06:27:52;4.50;;;3.25;;
2888;SDS011;1453;42.708;23.282;2023-11-19T06:30:18;6.53;;;3.17;;
2888;SDS011;1453;42.708;23.282;2023-11-19T06:32:45;5.70;;;3.92;;
2888;SDS011;1453;42.708;23.282;2023-11-19T06:35:12;6.40;;;4.30;;
2888;SDS011;1453;42.708;23.282;2023-11-19T06:37:39;8.30;;;4.80;;
2888;SDS011;1453;42.708;23.282;2023-11-19T06:40:06;8.13;;;5.10;;
2888;SDS011;1453;42.708;23.282;2023-11-19T06:42:34;5.97;;;3.58;;
2888;SDS011;1453;42.708;23.282;2023-11-19T06:45:00;7.30;;;4.57;;
2888;SDS011;1453;42.708;23.282;2023-11-19T06:47:28;7.00;;;4.10;;
2888;SDS011;1453;42.708;23.282;2023-11-19T06:49:54;6.70;;;4.43;;
2888;SDS011;1453;42.708;23.282;2023-11-19T06:52:20;6.15;;;4.18;;
2888;SDS011;1453;42.708;23.282;2023-11-19T06:54:46;5.80;;;4.30;;
2888;SDS011;1453;42.708;23.282;2023-11-19T06:57:12;6.65;;;3.55;;
2888;SDS011;1453;42.708;23.282;2023-11-19T06:59:39;5.82;;;3.80;;
2888;SDS011;1453;42.708;23.282;2023-11-19T07:02:05;8.02;;;3.17;;
2888;SDS011;1453;42.708;23.282;2023-11-19T07:04:32;6.55;;;4.10;;
2888;SDS011;1453;42.708;23.282;2023-11-19T07:07:00;6.20;;;3.90;;
2888;SDS011;1453;42.708;23.282;2023-11-19T07:09:26;7.10;;;4.13;;
2888;SDS011;1453;42.708;23.282;2023-11-19T07:11:52;5.53;;;4.17;;
2888;SDS011;1453;42.708;23.282;2023-11-19T07:14:18;6.07;;;3.95;;
2888;SDS011;1453;42.708;23.282;2023-11-19T07:16:45;7.27;;;4.20;;
2888;SDS011;1453;42.708;23.282;2023-11-19T07:19:15;6.53;;;3.60;;
2888;SDS011;1453;42.708;23.282;2023-11-19T07:21:41;6.80;;;4.35;;
2888;SDS011;1453;42.708;23.282;2023-11-19T07:24:12;5.43;;;3.42;;
2888;SDS011;1453;42.708;23.282;2023-11-19T07:26:45;6.93;;;3.90;;
2888;SDS011;1453;42.708;23.282;2023-11-19T07:29:13;6.07;;;3.22;;
2888;SDS011;1453;42.708;23.282;2023-11-19T07:31:42;5.75;;;3.58;;
2888;SDS011;1453;42.708;23.282;2023-11-19T07:34:10;5.00;;;3.15;;
2888;SDS011;1453;42.708;23.282;2023-11-19T07:36:36;6.13;;;4.30;;
2888;SDS011;1453;42.708;23.282;2023-11-19T07:39:03;5.55;;;3.83;;
2888;SDS011;1453;42.708;23.282;2023-11-19T07:41:30;9.35;;;4.95;;
2888;SDS011;1453;42.708;23.282;2023-11-19T07:43:56;7.80;;;4.75;;
2888;SDS011;1453;42.708;23.282;2023-11-19T07:46:22;6.70;;;3.67;;
2888;SDS011;1453;42.708;23.282;2023-11-19T07:48:48;7.00;;;4.23;;
2888;SDS011;1453;42.708;23.282;2023-11-19T07:51:14;4.90;;;3.17;;
2888;SDS011;1453;42.708;23.282;2023-11-19T07:53:40;8.52;;;4.10;;
2888;SDS011;1453;42.708;23.282;2023-11-19T07:56:07;6.28;;;4.38;;
2888;SDS011;1453;42.708;23.282;2023-11-19T07:58:33;6.32;;;4.55;;
2888;SDS011;1453;42.708;23.282;2023-11-19T08:01:00;6.50;;;4.10;;
2888;SDS011;1453;42.708;23.282;2023-11-19T08:03:29;7.93;;;3.90;;
2888;SDS011;1453;42.708;23.282;2023-11-19T08:05:55;7.53;;;3.73;;
2888;SDS011;1453;42.708;23.282;2023-11-19T08:08:24;4.93;;;3.00;;
2888;SDS011;1453;42.708;23.282;2023-11-19T08:10:50;8.20;;;5.10;;
2888;SDS011;1453;42.708;23.282;2023-11-19T08:13:17;6.75;;;4.28;;
2888;SDS011;1453;42.708;23.282;2023-11-19T08:15:44;6.45;;;4.68;;
2888;SDS011;1453;42.708;23.282;2023-11-19T08:18:11;5.60;;;4.05;;
2888;SDS011;1453;42.708;23.282;2023-11-19T08:20:37;5.67;;;3.70;;
2888;SDS011;1453;42.708;23.282;2023-11-19T08:23:03;6.88;;;3.80;;
2888;SDS011;1453;42.708;23.282;2023-11-19T08:25:30;9.82;;;4.45;;
2888;SDS011;1453;42.708;23.282;2023-11-19T08:27:56;6.53;;;4.50;;
2888;SDS011;1453;42.708;23.282;2023-11-19T08:30:22;7.40;;;4.73;;
2888;SDS011;1453;42.708;23.282;2023-11-19T08:32:47;7.57;;;4.47;;
2888;SDS011;1453;42.708;23.282;2023-11-19T08:35:13;7.90;;;4.57;;
2888;SDS011;1453;42.708;23.282;2023-11-19T08:37:41;6.50;;;4.70;;
2888;SDS011;1453;42.708;23.282;2023-11-19T08:40:07;7.45;;;3.90;;
2888;SDS011;1453;42.708;23.282;2023-11-19T08:42:34;7.75;;;4.65;;
2888;SDS011;1453;42.708;23.282;2023-11-19T08:45:00;9.03;;;5.53;;
2888;SDS011;1453;42.708;23.282;2023-11-19T08:47:26;6.27;;;4.10;;
2888;SDS011;1453;42.708;23.282;2023-11-19T08:49:52;8.30;;;3.90;;
2888;SDS011;1453;42.708;23.282;2023-11-19T08:52:18;5.28;;;2.83;;
2888;SDS011;1453;42.708;23.282;2023-11-19T08:54:44;5.37;;;3.33;;
2888;SDS011;1453;42.708;23.282;2023-11-19T08:57:10;6.60;;;3.60;;
2888;SDS011;1453;42.708;23.282;2023-11-19T08:59:35;4.87;;;3.60;;
2888;SDS011;1453;42.708;23.282;2023-11-19T09:02:05;11.57;;;5.00;;
2888;SDS011;1453;42.708;23.282;2023-11-19T09:04:32;5.05;;;2.83;;
2888;SDS011;1453;42.708;23.282;2023-11-19T09:06:58;7.60;;;5.07;;
2888;SDS011;1453;42.708;23.282;2023-11-19T09:09:24;6.97;;;3.95;;
2888;SDS011;1453;42.708;23.282;2023-11-19T09:11:50;10.00;;;5.30;;
2888;SDS011;1453;42.708;23.282;2023-11-19T09:14:16;7.13;;;4.05;;
2888;SDS011;1453;42.708;23.282;2023-11-19T09:16:43;5.95;;;4.00;;
2888;SDS011;1453;42.708;23.282;2023-11-19T09:19:09;6.10;;;4.10;;
2888;SDS011;1453;42.708;23.282;2023-11-19T09:21:35;5.90;;;3.80;;
2888;SDS011;1453;42.708;23.282;2023-11-19T09:24:03;6.32;;;4.10;;
2888;SDS011;1453;42.708;23.282;2023-11-19T09:26:30;8.02;;;4.45;;
2888;SDS011;1453;42.708;23.282;2023-11-19T09:28:56;6.50;;;4.20;;
2888;SDS011;1453;42.708;23.282;2023-11-19T09:31:22;6.47;;;3.77;;
2888;SDS011;1453;42.708;23.282;2023-11-19T09:33:47;6.87;;;4.00;;
2888;SDS011;1453;42.708;23.282;2023-11-19T09:36:13;6.17;;;4.37;;
2888;SDS011;1453;42.708;23.282;2023-11-19T09:38:43;6.03;;;4.32;;
2888;SDS011;1453;42.708;23.282;2023-11-19T09:41:09;4.95;;;3.63;;
2888;SDS011;1453;42.708;23.282;2023-11-19T09:43:37;4.80;;;3.20;;
2888;SDS011;1453;42.708;23.282;2023-11-19T09:46:05;6.40;;;3.78;;
2888;SDS011;1453;42.708;23.282;2023-11-19T09:48:33;6.88;;;4.20;;
2888;SDS011;1453;42.708;23.282;2023-11-19T09:51:01;5.82;;;3.72;;
2888;SDS011;1453;42.708;23.282;2023-11-19T09:53:27;4.82;;;3.00;;
2888;SDS011;1453;42.708;23.282;2023-11-19T09:55:53;6.90;;;3.22;;
2888;SDS011;1453;42.708;23.282;2023-11-19T09:58:21;7.97;;;4.30;;
2888;SDS011;1453;42.708;23.282;2023-11-19T10:00:47;5.20;;;3.60;;
2888;SDS011;1453;42.708;23.282;2023-11-19T10:03:17;6.40;;;3.85;;
2888;SDS011;1453;42.708;23.282;2023-11-19T10:05:43;6.88;;;4.25;;
2888;SDS011;1453;42.708;23.282;2023-11-19T10:08:09;5.22;;;3.40;;
2888;SDS011;1453;42.708;23.282;2023-11-19T10:10:36;6.78;;;3.70;;
2888;SDS011;1453;42.708;23.282;2023-11-19T10:13:02;4.95;;;3.35;;
2888;SDS011;1453;42.708;23.282;2023-11-19T10:15:28;4.53;;;2.50;;
2888;SDS011;1453;42.708;23.282;2023-11-19T10:18:02;8.38;;;3.65;;
2888;SDS011;1453;42.708;23.282;2023-11-19T10:20:37;7.38;;;4.10;;
2888;SDS011;1453;42.708;23.282;2023-11-19T10:23:06;7.25;;;4.35;;
2888;SDS011;1453;42.708;23.282;2023-11-19T10:25:32;6.60;;;4.75;;
2888;SDS011;1453;42.708;23.282;2023-11-19T10:28:00;6.40;;;4.40;;
2888;SDS011;1453;42.708;23.282;2023-11-19T10:30:27;5.03;;;4.05;;
2888;SDS011;1453;42.708;23.282;2023-11-19T10:33:07;5.05;;;3.60;;
2888;SDS011;1453;42.708;23.282;2023-11-19T10:35:57;9.75;;;5.53;;
2888;SDS011;1453;42.708;23.282;2023-11-19T10:38:25;6.63;;;4.53;;
2888;SDS011;1453;42.708;23.282;2023-11-19T10:40:51;7.03;;;4.70;;
2888;SDS011;1453;42.708;23.282;2023-11-19T10:43:19;6.60;;;4.28;;
2888;SDS011;1453;42.708;23.282;2023-11-19T10:45:48;6.85;;;4.28;;
2888;SDS011;1453;42.708;23.282;2023-11-19T10:48:14;6.95;;;4.00;;
2888;SDS011;1453;42.708;23.282;2023-11-19T10:50:41;6.70;;;4.80;;
2888;SDS011;1453;42.708;23.282;2023-11-19T10:53:09;11.38;;;4.72;;
2888;SDS011;1453;42.708;23.282;2023-11-19T10:55:40;5.05;;;3.53;;
2888;SDS011;1453;42.708;23.282;2023-11-19T10:58:10;6.18;;;3.38;;
2888;SDS011;1453;42.708;23.282;2023-11-19T11:00:38;5.95;;;3.83;;
2888;SDS011;1453;42.708;23.282;2023-11-19T11:03:16;5.60;;;3.38;;
2888;SDS011;1453;42.708;23.282;2023-11-19T11:05:50;8.30;;;3.72;;
2888;SDS011;1453;42.708;23.282;2023-11-19T11:08:18;5.78;;;3.83;;
2888;SDS011;1453;42.708;23.282;2023-11-19T11:10:50;5.72;;;3.10;;
2888;SDS011;1453;42.708;23.282;2023-11-19T11:13:19;5.45;;;3.35;;
2888;SDS011;1453;42.708;23.282;2023-11-19T11:15:53;4.93;;;3.33;;
2888;SDS011;1453;42.708;23.282;2023-11-19T11:18:25;8.32;;;4.28;;
2888;SDS011;1453;42.708;23.282;2023-11-19T11:20:52;6.22;;;3.60;;
2888;SDS011;1453;42.708;23.282;2023-11-19T11:26:53;6.10;;;3.10;;
2888;SDS011;1453;42.708;23.282;2023-11-19T11:38:07;6.30;;;4.00;;
2888;SDS011;1453;42.708;23.282;2023-11-19T11:40:34;4.77;;;3.40;;
2888;SDS011;1453;42.708;23.282;2023-11-19T11:43:01;6.33;;;4.37;;
2888;SDS011;1453;42.708;23.282;2023-11-19T11:45:45;6.87;;;4.20;;
2888;SDS011;1453;42.708;23.282;2023-11-19T11:48:20;4.87;;;3.77;;
2888;SDS011;1453;42.708;23.282;2023-11-19T11:50:50;5.67;;;3.77;;
2888;SDS011;1453;42.708;23.282;2023-11-19T11:53:22;4.20;;;2.90;;
2888;SDS011;1453;42.708;23.282;2023-11-19T11:58:20;5.17;;;3.90;;
2888;SDS011;1453;42.708;23.282;2023-11-19T12:00:47;6.77;;;4.17;;
2888;SDS011;1453;42.708;23.282;2023-11-19T12:03:16;6.83;;;3.17;;
2888;SDS011;1453;42.708;23.282;2023-11-19T12:05:47;4.00;;;2.37;;
2888;SDS011;1453;42.708;23.282;2023-11-19T12:08:14;4.50;;;3.47;;
2888;SDS011;1453;42.708;23.282;2023-11-19T12:13:23;4.50;;;3.23;;
2888;SDS011;1453;42.708;23.282;2023-11-19T12:18:28;4.70;;;3.60;;
2888;SDS011;1453;42.708;23.282;2023-11-19T12:21:01;6.37;;;3.67;;
2888;SDS011;1453;42.708;23.282;2023-11-19T12:23:30;4.63;;;3.23;;
2888;SDS011;1453;42.708;23.282;2023-11-19T12:25:57;5.40;;;3.80;;
2888;SDS011;1453;42.708;23.282;2023-11-19T12:28:24;5.87;;;3.57;;
2888;SDS011;1453;42.708;23.282;2023-11-19T12:30:52;5.40;;;3.70;;
2888;SDS011;1453;42.708;23.282;2023-11-19T12:33:18;5.60;;;4.20;;
2888;SDS011;1453;42.708;23.282;2023-11-19T12:35:46;5.70;;;3.63;;
2888;SDS011;1453;42.708;23.282;2023-11-19T12:38:23;7.07;;;3.80;;
2888;SDS011;1453;42.708;23.282;2023-11-19T12:41:03;5.93;;;4.10;;
2888;SDS011;1453;42.708;23.282;2023-11-19T12:43:35;6.10;;;3.53;;
2888;SDS011;1453;42.708;23.282;2023-11-19T12:46:03;5.70;;;3.97;;
2888;SDS011;1453;42.708;23.282;2023-11-19T12:48:43;4.70;;;3.57;;
2888;SDS011;1453;42.708;23.282;2023-11-19T12:51:08;7.97;;;4.67;;
2888;SDS011;1453;42.708;23.282;2023-11-19T12:53:47;8.00;;;5.10;;
2888;SDS011;1453;42.708;23.282;2023-11-19T12:56:15;6.03;;;4.37;;
2888;SDS011;1453;42.708;23.282;2023-11-19T12:58:41;6.53;;;5.20;;
2888;SDS011;1453;42.708;23.282;2023-11-19T13:01:08;6.37;;;4.67;;
2888;SDS011;1453;42.708;23.282;2023-11-19T13:03:37;9.43;;;4.63;;
2888;SDS011;1453;42.708;23.282;2023-11-19T13:06:04;5.30;;;3.47;;
2888;SDS011;1453;42.708;23.282;2023-11-19T13:08:38;6.33;;;4.20;;
2888;SDS011;1453;42.708;23.282;2023-11-19T13:11:30;5.70;;;4.07;;
2888;SDS011;1453;42.708;23.282;2023-11-19T13:13:58;5.03;;;3.87;;
2888;SDS011;1453;42.708;23.282;2023-11-19T13:16:35;5.30;;;3.67;;
2888;SDS011;1453;42.708;23.282;2023-11-19T13:19:02;5.57;;;4.27;;
2888;SDS011;1453;42.708;23.282;2023-11-19T13:21:28;5.27;;;3.80;;
2888;SDS011;1453;42.708;23.282;2023-11-19T13:23:55;4.13;;;3.10;;
2888;SDS011;1453;42.708;23.282;2023-11-19T13:26:21;6.93;;;4.40;;
2888;SDS011;1453;42.708;23.282;2023-11-19T13:28:48;5.63;;;3.83;;
2888;SDS011;1453;42.708;23.282;2023-11-19T13:31:14;5.00;;;3.53;;
2888;SDS011;1453;42.708;23.282;2023-11-19T13:33:40;5.03;;;3.87;;
2888;SDS011;1453;42.708;23.282;2023-11-19T13:36:07;5.87;;;4.07;;
2888;SDS011;1453;42.708;23.282;2023-11-19T13:38:34;5.80;;;3.93;;
2888;SDS011;1453;42.708;23.282;2023-11-19T13:41:01;6.20;;;4.20;;
2888;SDS011;1453;42.708;23.282;2023-11-19T13:43:30;5.27;;;3.83;;
2888;SDS011;1453;42.708;23.282;2023-11-19T13:45:57;5.10;;;3.40;;
2888;SDS011;1453;42.708;23.282;2023-11-19T13:48:23;6.90;;;4.03;;
2888;SDS011;1453;42.708;23.282;2023-11-19T13:50:51;6.03;;;4.27;;
2888;SDS011;1453;42.708;23.282;2023-11-19T13:53:17;5.67;;;4.17;;
2888;SDS011;1453;42.708;23.282;2023-11-19T13:55:43;6.67;;;4.80;;
2888;SDS011;1453;42.708;23.282;2023-11-19T13:58:09;5.57;;;3.70;;
2888;SDS011;1453;42.708;23.282;2023-11-19T14:00:35;8.17;;;3.73;;
2888;SDS011;1453;42.708;23.282;2023-11-19T14:03:02;6.73;;;4.53;;
2888;SDS011;1453;42.708;23.282;2023-11-19T14:05:28;4.70;;;3.73;;
2888;SDS011;1453;42.708;23.282;2023-11-19T14:07:54;7.53;;;5.07;;
2888;SDS011;1453;42.708;23.282;2023-11-19T14:10:21;5.97;;;4.10;;
2888;SDS011;1453;42.708;23.282;2023-11-19T14:43:53;5.90;;;4.20;;
2888;SDS011;1453;42.708;23.282;2023-11-19T14:46:20;8.88;;;5.30;;
2888;SDS011;1453;42.708;23.282;2023-11-19T14:48:46;21.40;;;11.67;;
2888;SDS011;1453;42.708;23.282;2023-11-19T14:51:11;7.63;;;5.27;;
2888;SDS011;1453;42.708;23.282;2023-11-19T14:53:37;6.70;;;4.90;;
2888;SDS011;1453;42.708;23.282;2023-11-19T14:56:03;7.43;;;4.60;;
2888;SDS011;1453;42.708;23.282;2023-11-19T14:58:32;8.90;;;4.93;;
2888;SDS011;1453;42.708;23.282;2023-11-19T15:00:58;7.00;;;4.70;;
2888;SDS011;1453;42.708;23.282;2023-11-19T15:03:23;7.97;;;5.27;;
2888;SDS011;1453;42.708;23.282;2023-11-19T15:05:49;8.70;;;5.03;;
2888;SDS011;1453;42.708;23.282;2023-11-19T15:08:16;9.63;;;5.55;;
2888;SDS011;1453;42.708;23.282;2023-11-19T15:10:42;7.63;;;5.20;;
2888;SDS011;1453;42.708;23.282;2023-11-19T15:13:08;9.25;;;5.32;;
2888;SDS011;1453;42.708;23.282;2023-11-19T15:15:34;8.80;;;5.37;;
2888;SDS011;1453;42.708;23.282;2023-11-19T15:18:00;9.43;;;5.38;;
2888;SDS011;1453;42.708;23.282;2023-11-19T15:20:26;7.28;;;4.93;;
2888;SDS011;1453;42.708;23.282;2023-11-19T15:22:55;9.75;;;5.50;;
2888;SDS011;1453;42.708;23.282;2023-11-19T15:25:21;8.15;;;5.35;;
2888;SDS011;1453;42.708;23.282;2023-11-19T15:27:48;10.10;;;5.15;;
2888;SDS011;1453;42.708;23.282;2023-11-19T15:30:14;8.80;;;4.93;;
2888;SDS011;1453;42.708;23.282;2023-11-19T15:32:41;8.95;;;5.13;;
2888;SDS011;1453;42.708;23.282;2023-11-19T15:35:08;8.82;;;5.22;;
2888;SDS011;1453;42.708;23.282;2023-11-19T15:37:35;8.65;;;5.80;;
2888;SDS011;1453;42.708;23.282;2023-11-19T15:40:08;10.50;;;6.72;;
2888;SDS011;1453;42.708;23.282;2023-11-19T15:42:37;13.98;;;8.52;;
2888;SDS011;1453;42.708;23.282;2023-11-19T15:45:05;11.90;;;8.02;;
2888;SDS011;1453;42.708;23.282;2023-11-19T15:47:35;13.02;;;8.63;;
2888;SDS011;1453;42.708;23.282;2023-11-19T15:50:01;13.57;;;8.52;;
2888;SDS011;1453;42.708;23.282;2023-11-19T15:52:28;11.88;;;6.72;;
2888;SDS011;1453;42.708;23.282;2023-11-19T15:54:55;10.40;;;7.10;;